sensor_id;sensor_type;location;lat;lon;timestamp;temperature;humidity
15564;DHT22;7883;52.554;13.364;2023-04-22T00:00:16;14.10;99.90
15564;DHT22;7883;52.554;13.364;2023-04-22T00:02:44;14.10;99.90
15564;DHT22;7883;52.554;13.364;2023-04-22T00:05:12;14.20;99.90
15564;DHT22;7883;52.554;13.364;2023-04-22T00:07:39;14.10;99.90
15564;DHT22;7883;52.554;13.364;2023-04-22T00:10:08;14.10;99.90
15564;DHT22;7883;52.554;13.364;2023-04-22T00:12:36;14.10;99.90
15564;DHT22;7883;52.554;13.364;2023-04-22T00:15:05;14.00;99.90
15564;DHT22;7883;52.554;13.364;2023-04-22T00:17:32;14.10;99.90
15564;DHT22;7883;52.554;13.364;2023-04-22T00:19:59;14.00;99.90
15564;DHT22;7883;52.554;13.364;2023-04-22T00:22:29;14.10;99.90
15564;DHT22;7883;52.554;13.364;2023-04-22T00:24:55;14.00;99.90
15564;DHT22;7883;52.554;13.364;2023-04-22T00:27:22;14.00;99.90
15564;DHT22;7883;52.554;13.364;2023-04-22T00:29:49;14.00;99.90
15564;DHT22;7883;52.554;13.364;2023-04-22T00:32:18;13.90;99.90
15564;DHT22;7883;52.554;13.364;2023-04-22T00:34:47;13.80;99.90
15564;DHT22;7883;52.554;13.364;2023-04-22T00:37:14;13.90;99.90
15564;DHT22;7883;52.554;13.364;2023-04-22T00:39:41;13.80;99.90
15564;DHT22;7883;52.554;13.364;2023-04-22T00:42:08;13.80;99.90
15564;DHT22;7883;52.554;13.364;2023-04-22T00:44:35;13.80;99.90
15564;DHT22;7883;52.554;13.364;2023-04-22T00:47:04;13.70;99.90
15564;DHT22;7883;52.554;13.364;2023-04-22T00:49:34;13.70;99.90
15564;DHT22;7883;52.554;13.364;2023-04-22T00:52:01;13.70;99.90
15564;DHT22;7883;52.554;13.364;2023-04-22T00:54:28;13.70;99.90
15564;DHT22;7883;52.554;13.364;2023-04-22T00:56:55;13.80;99.90
15564;DHT22;7883;52.554;13.364;2023-04-22T00:59:24;13.80;99.90
15564;DHT22;7883;52.554;13.364;2023-04-22T01:01:52;13.70;99.90
15564;DHT22;7883;52.554;13.364;2023-04-22T01:04:20;13.70;99.90
15564;DHT22;7883;52.554;13.364;2023-04-22T01:06:50;13.70;99.90
15564;DHT22;7883;52.554;13.364;2023-04-22T01:09:18;13.70;99.90
15564;DHT22;7883;52.554;13.364;2023-04-22T01:11:46;13.70;99.90
15564;DHT22;7883;52.554;13.364;2023-04-22T01:14:13;13.70;99.90
15564;DHT22;7883;52.554;13.364;2023-04-22T01:16:41;13.60;99.90
15564;DHT22;7883;52.554;13.364;2023-04-22T01:19:10;13.60;99.90
15564;DHT22;7883;52.554;13.364;2023-04-22T01:21:38;13.70;99.90
15564;DHT22;7883;52.554;13.364;2023-04-22T01:24:07;13.70;99.90
15564;DHT22;7883;52.554;13.364;2023-04-22T01:26:34;13.70;99.90
15564;DHT22;7883;52.554;13.364;2023-04-22T01:29:02;13.60;99.90
15564;DHT22;7883;52.554;13.364;2023-04-22T01:31:30;13.60;99.90
15564;DHT22;7883;52.554;13.364;2023-04-22T01:33:57;13.60;99.90
15564;DHT22;7883;52.554;13.364;2023-04-22T01:36:26;13.60;99.90
15564;DHT22;7883;52.554;13.364;2023-04-22T01:38:53;13.60;99.90
15564;DHT22;7883;52.554;13.364;2023-04-22T01:41:21;13.60;99.90
15564;DHT22;7883;52.554;13.364;2023-04-22T01:43:50;13.60;99.90
15564;DHT22;7883;52.554;13.364;2023-04-22T01:46:18;13.60;99.90
15564;DHT22;7883;52.554;13.364;2023-04-22T01:48:45;13.60;99.90
15564;DHT22;7883;52.554;13.364;2023-04-22T01:51:15;13.60;99.90
15564;DHT22;7883;52.554;13.364;2023-04-22T01:53:44;13.50;99.90
15564;DHT22;7883;52.554;13.364;2023-04-22T01:56:11;13.50;99.90
15564;DHT22;7883;52.554;13.364;2023-04-22T01:58:40;13.50;99.90
15564;DHT22;7883;52.554;13.364;2023-04-22T02:01:08;13.40;99.90
15564;DHT22;7883;52.554;13.364;2023-04-22T02:03:35;13.40;99.90
15564;DHT22;7883;52.554;13.364;2023-04-22T02:06:02;13.40;99.90
15564;DHT22;7883;52.554;13.364;2023-04-22T02:08:30;13.30;99.90
15564;DHT22;7883;52.554;13.364;2023-04-22T02:10:57;13.20;99.90
15564;DHT22;7883;52.554;13.364;2023-04-22T02:13:25;13.20;99.90
15564;DHT22;7883;52.554;13.364;2023-04-22T02:15:53;13.20;99.90
15564;DHT22;7883;52.554;13.364;2023-04-22T02:18:20;13.30;99.90
15564;DHT22;7883;52.554;13.364;2023-04-22T02:20:48;13.20;99.90
15564;DHT22;7883;52.554;13.364;2023-04-22T02:23:15;13.00;99.90
15564;DHT22;7883;52.554;13.364;2023-04-22T02:25:48;13.00;99.90
15564;DHT22;7883;52.554;13.364;2023-04-22T02:28:16;12.90;99.90
15564;DHT22;7883;52.554;13.364;2023-04-22T02:30:44;13.00;99.90
15564;DHT22;7883;52.554;13.364;2023-04-22T02:33:12;13.00;99.90
15564;DHT22;7883;52.554;13.364;2023-04-22T02:35:39;13.10;99.90
15564;DHT22;7883;52.554;13.364;2023-04-22T02:38:06;13.20;99.90
15564;DHT22;7883;52.554;13.364;2023-04-22T02:40:33;13.10;99.90
15564;DHT22;7883;52.554;13.364;2023-04-22T02:43:00;13.10;99.90
15564;DHT22;7883;52.554;13.364;2023-04-22T02:45:27;13.10;99.90
15564;DHT22;7883;52.554;13.364;2023-04-22T02:47:54;13.10;99.90
15564;DHT22;7883;52.554;13.364;2023-04-22T02:50:22;13.10;99.90
15564;DHT22;7883;52.554;13.364;2023-04-22T02:52:49;13.00;99.90
15564;DHT22;7883;52.554;13.364;2023-04-22T02:55:16;12.90;99.90
15564;DHT22;7883;52.554;13.364;2023-04-22T02:57:43;12.80;99.90
15564;DHT22;7883;52.554;13.364;2023-04-22T03:00:10;12.90;99.90
15564;DHT22;7883;52.554;13.364;2023-04-22T03:02:38;13.00;99.90
15564;DHT22;7883;52.554;13.364;2023-04-22T03:05:05;13.00;99.90
15564;DHT22;7883;52.554;13.364;2023-04-22T03:07:34;13.00;99.90
15564;DHT22;7883;52.554;13.364;2023-04-22T03:10:00;12.80;99.90
15564;DHT22;7883;52.554;13.364;2023-04-22T03:12:27;12.70;99.90
15564;DHT22;7883;52.554;13.364;2023-04-22T03:14:54;12.70;99.90
15564;DHT22;7883;52.554;13.364;2023-04-22T03:17:21;12.80;99.90
15564;DHT22;7883;52.554;13.364;2023-04-22T03:19:48;12.80;99.90
15564;DHT22;7883;52.554;13.364;2023-04-22T03:22:15;12.70;99.90
15564;DHT22;7883;52.554;13.364;2023-04-22T03:24:46;12.70;99.90
15564;DHT22;7883;52.554;13.364;2023-04-22T03:27:13;12.70;99.90
15564;DHT22;7883;52.554;13.364;2023-04-22T03:29:40;12.60;99.90
15564;DHT22;7883;52.554;13.364;2023-04-22T03:32:07;12.60;99.90
15564;DHT22;7883;52.554;13.364;2023-04-22T03:34:34;12.70;99.90
15564;DHT22;7883;52.554;13.364;2023-04-22T03:37:02;12.80;99.90
15564;DHT22;7883;52.554;13.364;2023-04-22T03:39:30;12.90;99.90
15564;DHT22;7883;52.554;13.364;2023-04-22T03:42:01;12.80;99.90
15564;DHT22;7883;52.554;13.364;2023-04-22T03:44:31;12.70;99.90
15564;DHT22;7883;52.554;13.364;2023-04-22T03:46:58;12.70;99.90
15564;DHT22;7883;52.554;13.364;2023-04-22T03:49:25;12.70;99.90
15564;DHT22;7883;52.554;13.364;2023-04-22T03:51:55;12.70;99.90
15564;DHT22;7883;52.554;13.364;2023-04-22T03:54:22;12.70;99.90
15564;DHT22;7883;52.554;13.364;2023-04-22T03:56:49;12.70;99.90
15564;DHT22;7883;52.554;13.364;2023-04-22T03:59:18;12.80;99.90
15564;DHT22;7883;52.554;13.364;2023-04-22T04:01:45;12.70;99.90
15564;DHT22;7883;52.554;13.364;2023-04-22T04:04:12;12.70;99.90
15564;DHT22;7883;52.554;13.364;2023-04-22T04:06:39;12.80;99.90
15564;DHT22;7883;52.554;13.364;2023-04-22T04:09:06;12.70;99.90
15564;DHT22;7883;52.554;13.364;2023-04-22T04:11:33;12.70;99.90
15564;DHT22;7883;52.554;13.364;2023-04-22T04:14:00;12.70;99.90
15564;DHT22;7883;52.554;13.364;2023-04-22T04:16:29;12.80;99.90
15564;DHT22;7883;52.554;13.364;2023-04-22T04:18:56;12.80;99.90
15564;DHT22;7883;52.554;13.364;2023-04-22T04:21:23;12.70;99.90
15564;DHT22;7883;52.554;13.364;2023-04-22T04:23:51;12.70;99.90
15564;DHT22;7883;52.554;13.364;2023-04-22T04:26:18;12.60;99.90
15564;DHT22;7883;52.554;13.364;2023-04-22T04:28:46;12.60;99.90
15564;DHT22;7883;52.554;13.364;2023-04-22T04:31:13;12.60;99.90
15564;DHT22;7883;52.554;13.364;2023-04-22T04:33:42;12.60;99.90
15564;DHT22;7883;52.554;13.364;2023-04-22T04:36:09;12.60;99.90
15564;DHT22;7883;52.554;13.364;2023-04-22T04:38:36;12.60;99.90
15564;DHT22;7883;52.554;13.364;2023-04-22T04:41:03;12.60;99.90
15564;DHT22;7883;52.554;13.364;2023-04-22T04:43:33;12.70;99.90
15564;DHT22;7883;52.554;13.364;2023-04-22T04:46:00;12.70;99.90
15564;DHT22;7883;52.554;13.364;2023-04-22T04:48:27;12.90;99.90
15564;DHT22;7883;52.554;13.364;2023-04-22T04:50:55;13.60;99.90
15564;DHT22;7883;52.554;13.364;2023-04-22T04:53:23;14.60;99.90
15564;DHT22;7883;52.554;13.364;2023-04-22T04:55:50;15.40;99.90
15564;DHT22;7883;52.554;13.364;2023-04-22T04:58:17;16.30;99.90
15564;DHT22;7883;52.554;13.364;2023-04-22T05:00:44;16.90;99.90
15564;DHT22;7883;52.554;13.364;2023-04-22T05:03:11;16.90;99.90
15564;DHT22;7883;52.554;13.364;2023-04-22T05:05:38;17.30;99.90
15564;DHT22;7883;52.554;13.364;2023-04-22T05:08:06;17.60;99.90
15564;DHT22;7883;52.554;13.364;2023-04-22T05:10:33;18.10;99.90
15564;DHT22;7883;52.554;13.364;2023-04-22T05:13:00;18.50;99.90
15564;DHT22;7883;52.554;13.364;2023-04-22T05:15:28;18.70;99.90
15564;DHT22;7883;52.554;13.364;2023-04-22T05:17:55;19.30;99.90
15564;DHT22;7883;52.554;13.364;2023-04-22T05:20:22;19.10;99.90
15564;DHT22;7883;52.554;13.364;2023-04-22T05:22:49;19.40;99.90
15564;DHT22;7883;52.554;13.364;2023-04-22T05:25:18;19.50;99.90
15564;DHT22;7883;52.554;13.364;2023-04-22T05:27:44;17.40;99.90
15564;DHT22;7883;52.554;13.364;2023-04-22T05:30:11;15.70;99.90
15564;DHT22;7883;52.554;13.364;2023-04-22T05:32:38;14.70;99.90
15564;DHT22;7883;52.554;13.364;2023-04-22T05:35:06;14.30;99.90
15564;DHT22;7883;52.554;13.364;2023-04-22T05:37:33;13.90;99.90
15564;DHT22;7883;52.554;13.364;2023-04-22T05:40:00;13.70;99.90
15564;DHT22;7883;52.554;13.364;2023-04-22T05:42:29;13.60;99.90
15564;DHT22;7883;52.554;13.364;2023-04-22T05:44:56;13.50;99.90
15564;DHT22;7883;52.554;13.364;2023-04-22T05:47:23;13.60;99.90
15564;DHT22;7883;52.554;13.364;2023-04-22T05:49:50;13.60;99.90
15564;DHT22;7883;52.554;13.364;2023-04-22T05:52:17;13.50;99.90
15564;DHT22;7883;52.554;13.364;2023-04-22T05:54:44;13.30;99.90
15564;DHT22;7883;52.554;13.364;2023-04-22T05:57:11;13.40;99.90
15564;DHT22;7883;52.554;13.364;2023-04-22T05:59:40;13.40;99.90
15564;DHT22;7883;52.554;13.364;2023-04-22T06:02:07;13.40;99.90
15564;DHT22;7883;52.554;13.364;2023-04-22T06:04:35;13.50;99.90
15564;DHT22;7883;52.554;13.364;2023-04-22T06:07:02;13.50;99.90
15564;DHT22;7883;52.554;13.364;2023-04-22T06:09:29;13.60;99.90
15564;DHT22;7883;52.554;13.364;2023-04-22T06:11:56;13.70;99.90
15564;DHT22;7883;52.554;13.364;2023-04-22T06:14:23;13.70;99.90
15564;DHT22;7883;52.554;13.364;2023-04-22T06:16:52;13.70;99.90
15564;DHT22;7883;52.554;13.364;2023-04-22T06:19:19;13.70;99.90
15564;DHT22;7883;52.554;13.364;2023-04-22T06:21:45;13.80;99.90
15564;DHT22;7883;52.554;13.364;2023-04-22T06:24:12;13.80;99.90
15564;DHT22;7883;52.554;13.364;2023-04-22T06:26:39;13.80;99.90
15564;DHT22;7883;52.554;13.364;2023-04-22T06:29:06;13.90;99.90
15564;DHT22;7883;52.554;13.364;2023-04-22T06:31:33;13.90;99.90
15564;DHT22;7883;52.554;13.364;2023-04-22T06:34:01;13.90;99.90
15564;DHT22;7883;52.554;13.364;2023-04-22T06:36:29;13.90;99.90
15564;DHT22;7883;52.554;13.364;2023-04-22T06:38:56;13.80;99.90
15564;DHT22;7883;52.554;13.364;2023-04-22T06:41:27;13.80;99.90
15564;DHT22;7883;52.554;13.364;2023-04-22T06:43:55;13.80;99.90
15564;DHT22;7883;52.554;13.364;2023-04-22T06:46:22;13.90;99.90
15564;DHT22;7883;52.554;13.364;2023-04-22T06:48:49;13.90;99.90
15564;DHT22;7883;52.554;13.364;2023-04-22T06:51:19;14.00;99.90
15564;DHT22;7883;52.554;13.364;2023-04-22T06:53:46;14.00;99.90
15564;DHT22;7883;52.554;13.364;2023-04-22T06:56:13;14.00;99.90
15564;DHT22;7883;52.554;13.364;2023-04-22T06:58:40;14.00;99.90
15564;DHT22;7883;52.554;13.364;2023-04-22T07:01:07;14.10;99.90
15564;DHT22;7883;52.554;13.364;2023-04-22T07:03:34;14.20;99.90
15564;DHT22;7883;52.554;13.364;2023-04-22T07:06:01;14.30;99.90
15564;DHT22;7883;52.554;13.364;2023-04-22T07:08:29;14.30;99.90
15564;DHT22;7883;52.554;13.364;2023-04-22T07:10:56;14.30;99.90
15564;DHT22;7883;52.554;13.364;2023-04-22T07:13:23;14.50;99.90
15564;DHT22;7883;52.554;13.364;2023-04-22T07:15:51;14.60;99.90
15564;DHT22;7883;52.554;13.364;2023-04-22T07:18:18;14.60;99.90
15564;DHT22;7883;52.554;13.364;2023-04-22T07:20:45;14.70;99.90
15564;DHT22;7883;52.554;13.364;2023-04-22T07:23:12;14.80;99.90
15564;DHT22;7883;52.554;13.364;2023-04-22T07:25:41;14.90;99.90
15564;DHT22;7883;52.554;13.364;2023-04-22T07:28:08;14.90;99.90
15564;DHT22;7883;52.554;13.364;2023-04-22T07:30:34;14.90;99.90
15564;DHT22;7883;52.554;13.364;2023-04-22T07:33:01;14.90;99.90
15564;DHT22;7883;52.554;13.364;2023-04-22T07:35:30;15.00;99.90
15564;DHT22;7883;52.554;13.364;2023-04-22T07:37:56;15.10;99.90
15564;DHT22;7883;52.554;13.364;2023-04-22T07:40:23;15.20;99.90
15564;DHT22;7883;52.554;13.364;2023-04-22T07:42:52;15.20;99.90
15564;DHT22;7883;52.554;13.364;2023-04-22T07:45:18;15.30;99.90
15564;DHT22;7883;52.554;13.364;2023-04-22T07:47:45;15.30;99.90
15564;DHT22;7883;52.554;13.364;2023-04-22T07:50:12;15.40;99.90
15564;DHT22;7883;52.554;13.364;2023-04-22T07:52:39;15.50;99.90
15564;DHT22;7883;52.554;13.364;2023-04-22T07:55:07;15.50;99.90
15564;DHT22;7883;52.554;13.364;2023-04-22T07:57:35;15.60;99.90
15564;DHT22;7883;52.554;13.364;2023-04-22T08:00:06;15.70;99.90
15564;DHT22;7883;52.554;13.364;2023-04-22T08:02:34;15.80;99.90
15564;DHT22;7883;52.554;13.364;2023-04-22T08:05:01;15.90;99.90
15564;DHT22;7883;52.554;13.364;2023-04-22T08:07:27;15.90;99.90
15564;DHT22;7883;52.554;13.364;2023-04-22T08:09:54;15.90;99.90
15564;DHT22;7883;52.554;13.364;2023-04-22T08:12:22;16.00;99.90
15564;DHT22;7883;52.554;13.364;2023-04-22T08:14:49;16.10;99.90
15564;DHT22;7883;52.554;13.364;2023-04-22T08:17:17;16.10;99.90
15564;DHT22;7883;52.554;13.364;2023-04-22T08:19:46;16.30;99.90
15564;DHT22;7883;52.554;13.364;2023-04-22T08:22:14;16.30;99.90
15564;DHT22;7883;52.554;13.364;2023-04-22T08:24:42;16.40;99.90
15564;DHT22;7883;52.554;13.364;2023-04-22T08:27:09;16.40;99.90
15564;DHT22;7883;52.554;13.364;2023-04-22T08:29:37;16.50;99.90
15564;DHT22;7883;52.554;13.364;2023-04-22T08:32:05;16.60;99.90
15564;DHT22;7883;52.554;13.364;2023-04-22T08:34:33;16.70;99.90
15564;DHT22;7883;52.554;13.364;2023-04-22T08:37:01;16.70;99.90
15564;DHT22;7883;52.554;13.364;2023-04-22T08:39:28;16.70;99.90
15564;DHT22;7883;52.554;13.364;2023-04-22T08:41:55;16.90;99.90
15564;DHT22;7883;52.554;13.364;2023-04-22T08:44:22;16.90;99.90
15564;DHT22;7883;52.554;13.364;2023-04-22T08:46:50;17.00;99.90
15564;DHT22;7883;52.554;13.364;2023-04-22T08:49:17;17.20;99.90
15564;DHT22;7883;52.554;13.364;2023-04-22T08:51:46;17.30;99.90
15564;DHT22;7883;52.554;13.364;2023-04-22T08:54:14;17.30;99.90
15564;DHT22;7883;52.554;13.364;2023-04-22T08:56:43;17.30;99.90
15564;DHT22;7883;52.554;13.364;2023-04-22T08:59:11;17.30;99.90
15564;DHT22;7883;52.554;13.364;2023-04-22T09:01:39;17.30;99.90
15564;DHT22;7883;52.554;13.364;2023-04-22T09:04:09;17.50;99.90
15564;DHT22;7883;52.554;13.364;2023-04-22T09:06:37;17.60;99.90
15564;DHT22;7883;52.554;13.364;2023-04-22T09:09:06;17.60;99.90
15564;DHT22;7883;52.554;13.364;2023-04-22T09:11:34;17.70;99.90
15564;DHT22;7883;52.554;13.364;2023-04-22T09:14:02;17.80;99.90
15564;DHT22;7883;52.554;13.364;2023-04-22T09:16:29;17.80;99.90
15564;DHT22;7883;52.554;13.364;2023-04-22T09:18:57;17.80;99.90
15564;DHT22;7883;52.554;13.364;2023-04-22T09:21:25;18.00;99.90
15564;DHT22;7883;52.554;13.364;2023-04-22T09:23:53;17.90;99.90
15564;DHT22;7883;52.554;13.364;2023-04-22T09:26:23;17.90;99.90
15564;DHT22;7883;52.554;13.364;2023-04-22T09:28:52;18.10;99.90
15564;DHT22;7883;52.554;13.364;2023-04-22T09:31:20;18.20;99.90
15564;DHT22;7883;52.554;13.364;2023-04-22T09:33:49;18.30;99.90
15564;DHT22;7883;52.554;13.364;2023-04-22T09:36:20;18.20;99.90
15564;DHT22;7883;52.554;13.364;2023-04-22T09:38:51;18.40;99.90
15564;DHT22;7883;52.554;13.364;2023-04-22T09:41:27;18.40;99.90
15564;DHT22;7883;52.554;13.364;2023-04-22T09:43:54;18.50;99.90
15564;DHT22;7883;52.554;13.364;2023-04-22T09:46:22;18.60;99.90
15564;DHT22;7883;52.554;13.364;2023-04-22T09:48:50;18.80;99.90
15564;DHT22;7883;52.554;13.364;2023-04-22T09:51:18;18.80;99.90
15564;DHT22;7883;52.554;13.364;2023-04-22T09:53:56;18.70;99.90
15564;DHT22;7883;52.554;13.364;2023-04-22T09:59:23;18.70;99.90
15564;DHT22;7883;52.554;13.364;2023-04-22T10:01:54;18.90;99.90
15564;DHT22;7883;52.554;13.364;2023-04-22T10:04:22;19.00;99.90
15564;DHT22;7883;52.554;13.364;2023-04-22T10:06:49;19.10;99.90
15564;DHT22;7883;52.554;13.364;2023-04-22T10:09:18;19.20;99.90
15564;DHT22;7883;52.554;13.364;2023-04-22T10:11:45;19.00;99.90
15564;DHT22;7883;52.554;13.364;2023-04-22T10:14:21;19.10;99.90
15564;DHT22;7883;52.554;13.364;2023-04-22T10:16:53;19.10;99.90
15564;DHT22;7883;52.554;13.364;2023-04-22T10:19:24;19.10;99.90
15564;DHT22;7883;52.554;13.364;2023-04-22T10:21:55;19.20;99.90
15564;DHT22;7883;52.554;13.364;2023-04-22T10:24:25;19.30;99.90
15564;DHT22;7883;52.554;13.364;2023-04-22T10:26:54;19.40;99.90
15564;DHT22;7883;52.554;13.364;2023-04-22T10:29:26;19.40;99.90
15564;DHT22;7883;52.554;13.364;2023-04-22T10:31:54;19.40;99.90
15564;DHT22;7883;52.554;13.364;2023-04-22T10:34:23;19.30;99.90
15564;DHT22;7883;52.554;13.364;2023-04-22T10:36:55;19.20;99.90
15564;DHT22;7883;52.554;13.364;2023-04-22T10:39:23;19.40;99.90
15564;DHT22;7883;52.554;13.364;2023-04-22T10:41:52;19.40;99.90
15564;DHT22;7883;52.554;13.364;2023-04-22T10:44:20;19.50;99.90
15564;DHT22;7883;52.554;13.364;2023-04-22T10:47:02;19.70;99.90
15564;DHT22;7883;52.554;13.364;2023-04-22T10:49:30;19.90;99.90
15564;DHT22;7883;52.554;13.364;2023-04-22T10:51:58;20.00;99.90
15564;DHT22;7883;52.554;13.364;2023-04-22T10:54:57;20.10;99.90
15564;DHT22;7883;52.554;13.364;2023-04-22T10:57:34;20.20;99.90
15564;DHT22;7883;52.554;13.364;2023-04-22T11:00:17;20.10;99.90
15564;DHT22;7883;52.554;13.364;2023-04-22T11:02:46;20.10;99.90
15564;DHT22;7883;52.554;13.364;2023-04-22T11:05:22;20.10;99.80
15564;DHT22;7883;52.554;13.364;2023-04-22T11:07:50;20.10;99.90
15564;DHT22;7883;52.554;13.364;2023-04-22T11:10:37;20.20;99.90
15564;DHT22;7883;52.554;13.364;2023-04-22T11:13:07;20.20;99.90
15564;DHT22;7883;52.554;13.364;2023-04-22T11:15:36;20.20;99.90
15564;DHT22;7883;52.554;13.364;2023-04-22T11:18:09;20.20;99.90
15564;DHT22;7883;52.554;13.364;2023-04-22T11:20:37;20.20;99.90
15564;DHT22;7883;52.554;13.364;2023-04-22T11:23:04;20.20;99.60
15564;DHT22;7883;52.554;13.364;2023-04-22T11:25:31;20.10;99.30
15564;DHT22;7883;52.554;13.364;2023-04-22T11:27:58;20.10;99.50
15564;DHT22;7883;52.554;13.364;2023-04-22T11:30:27;20.30;99.10
15564;DHT22;7883;52.554;13.364;2023-04-22T11:32:57;20.50;99.50
15564;DHT22;7883;52.554;13.364;2023-04-22T11:35:28;20.60;99.90
15564;DHT22;7883;52.554;13.364;2023-04-22T11:37:58;20.70;99.00
15564;DHT22;7883;52.554;13.364;2023-04-22T11:40:27;20.70;99.10
15564;DHT22;7883;52.554;13.364;2023-04-22T11:42:54;20.80;98.70
15564;DHT22;7883;52.554;13.364;2023-04-22T11:45:22;20.80;98.50
15564;DHT22;7883;52.554;13.364;2023-04-22T11:47:49;20.80;98.80
15564;DHT22;7883;52.554;13.364;2023-04-22T11:50:20;20.70;98.80
15564;DHT22;7883;52.554;13.364;2023-04-22T11:52:50;20.60;98.90
15564;DHT22;7883;52.554;13.364;2023-04-22T11:55:20;20.70;98.60
15564;DHT22;7883;52.554;13.364;2023-04-22T11:57:56;20.70;98.30
15564;DHT22;7883;52.554;13.364;2023-04-22T12:00:26;20.70;98.50
15564;DHT22;7883;52.554;13.364;2023-04-22T12:02:55;20.80;98.10
15564;DHT22;7883;52.554;13.364;2023-04-22T12:05:37;20.80;98.10
15564;DHT22;7883;52.554;13.364;2023-04-22T12:08:10;21.00;98.30
15564;DHT22;7883;52.554;13.364;2023-04-22T12:10:39;21.00;98.70
15564;DHT22;7883;52.554;13.364;2023-04-22T12:13:07;21.00;97.90
15564;DHT22;7883;52.554;13.364;2023-04-22T12:15:41;20.90;98.20
15564;DHT22;7883;52.554;13.364;2023-04-22T12:18:09;21.00;97.60
15564;DHT22;7883;52.554;13.364;2023-04-22T12:20:37;21.10;96.90
15564;DHT22;7883;52.554;13.364;2023-04-22T12:23:12;21.10;97.00
15564;DHT22;7883;52.554;13.364;2023-04-22T12:25:40;21.20;97.30
15564;DHT22;7883;52.554;13.364;2023-04-22T12:28:07;21.20;98.20
15564;DHT22;7883;52.554;13.364;2023-04-22T12:30:34;21.30;97.70
15564;DHT22;7883;52.554;13.364;2023-04-22T12:33:01;21.20;97.50
15564;DHT22;7883;52.554;13.364;2023-04-22T12:35:28;21.20;98.00
15564;DHT22;7883;52.554;13.364;2023-04-22T12:37:55;21.30;98.60
15564;DHT22;7883;52.554;13.364;2023-04-22T12:40:23;21.30;96.80
15564;DHT22;7883;52.554;13.364;2023-04-22T12:42:50;21.40;96.90
15564;DHT22;7883;52.554;13.364;2023-04-22T12:45:18;21.40;96.60
15564;DHT22;7883;52.554;13.364;2023-04-22T12:47:44;21.50;96.70
15564;DHT22;7883;52.554;13.364;2023-04-22T12:50:11;21.50;96.50
15564;DHT22;7883;52.554;13.364;2023-04-22T12:52:38;21.40;97.30
15564;DHT22;7883;52.554;13.364;2023-04-22T12:55:06;21.30;96.90
15564;DHT22;7883;52.554;13.364;2023-04-22T12:57:35;21.30;95.60
15564;DHT22;7883;52.554;13.364;2023-04-22T13:00:03;21.40;95.50
15564;DHT22;7883;52.554;13.364;2023-04-22T13:02:31;21.60;96.20
15564;DHT22;7883;52.554;13.364;2023-04-22T13:04:58;21.60;95.60
15564;DHT22;7883;52.554;13.364;2023-04-22T13:07:25;21.50;95.60
15564;DHT22;7883;52.554;13.364;2023-04-22T13:09:53;21.60;95.30
15564;DHT22;7883;52.554;13.364;2023-04-22T13:12:20;21.60;94.70
15564;DHT22;7883;52.554;13.364;2023-04-22T13:14:48;21.60;94.70
15564;DHT22;7883;52.554;13.364;2023-04-22T13:17:15;21.60;94.60
15564;DHT22;7883;52.554;13.364;2023-04-22T13:19:42;21.50;94.80
15564;DHT22;7883;52.554;13.364;2023-04-22T13:22:10;21.40;95.20
15564;DHT22;7883;52.554;13.364;2023-04-22T13:24:37;21.40;94.80
15564;DHT22;7883;52.554;13.364;2023-04-22T13:27:04;21.40;94.50
15564;DHT22;7883;52.554;13.364;2023-04-22T13:29:32;21.40;94.30
15564;DHT22;7883;52.554;13.364;2023-04-22T13:32:02;21.40;94.80
15564;DHT22;7883;52.554;13.364;2023-04-22T13:34:30;21.40;95.30
15564;DHT22;7883;52.554;13.364;2023-04-22T13:36:57;21.40;94.90
15564;DHT22;7883;52.554;13.364;2023-04-22T13:39:25;21.50;94.90
15564;DHT22;7883;52.554;13.364;2023-04-22T13:41:53;21.50;95.20
15564;DHT22;7883;52.554;13.364;2023-04-22T13:44:20;21.60;95.90
15564;DHT22;7883;52.554;13.364;2023-04-22T13:46:46;21.50;96.00
15564;DHT22;7883;52.554;13.364;2023-04-22T13:49:15;21.60;95.90
15564;DHT22;7883;52.554;13.364;2023-04-22T13:51:42;21.70;95.70
15564;DHT22;7883;52.554;13.364;2023-04-22T13:54:09;21.60;95.50
15564;DHT22;7883;52.554;13.364;2023-04-22T13:56:36;21.60;95.80
15564;DHT22;7883;52.554;13.364;2023-04-22T13:59:03;21.50;96.40
15564;DHT22;7883;52.554;13.364;2023-04-22T14:01:29;21.40;96.80
15564;DHT22;7883;52.554;13.364;2023-04-22T14:03:58;21.40;96.20
15564;DHT22;7883;52.554;13.364;2023-04-22T14:06:26;21.40;97.10
15564;DHT22;7883;52.554;13.364;2023-04-22T14:08:53;21.40;96.60
15564;DHT22;7883;52.554;13.364;2023-04-22T14:11:23;21.40;96.40
15564;DHT22;7883;52.554;13.364;2023-04-22T14:13:50;21.40;96.80
15564;DHT22;7883;52.554;13.364;2023-04-22T14:16:17;21.30;97.10
15564;DHT22;7883;52.554;13.364;2023-04-22T14:18:44;21.40;96.50
15564;DHT22;7883;52.554;13.364;2023-04-22T14:21:11;21.40;96.70
15564;DHT22;7883;52.554;13.364;2023-04-22T14:23:40;21.40;96.70
15564;DHT22;7883;52.554;13.364;2023-04-22T14:26:10;21.50;96.20
15564;DHT22;7883;52.554;13.364;2023-04-22T14:28:37;21.50;96.60
15564;DHT22;7883;52.554;13.364;2023-04-22T14:31:05;21.60;96.60
15564;DHT22;7883;52.554;13.364;2023-04-22T14:33:32;21.40;96.50
15564;DHT22;7883;52.554;13.364;2023-04-22T14:35:59;21.50;96.70
15564;DHT22;7883;52.554;13.364;2023-04-22T14:38:26;21.60;96.10
15564;DHT22;7883;52.554;13.364;2023-04-22T14:40:55;21.70;96.60
15564;DHT22;7883;52.554;13.364;2023-04-22T14:43:22;21.70;96.00
15564;DHT22;7883;52.554;13.364;2023-04-22T14:45:49;21.70;95.80
15564;DHT22;7883;52.554;13.364;2023-04-22T14:48:16;21.80;95.90
15564;DHT22;7883;52.554;13.364;2023-04-22T14:50:43;21.80;95.70
15564;DHT22;7883;52.554;13.364;2023-04-22T14:53:10;21.80;95.60
15564;DHT22;7883;52.554;13.364;2023-04-22T14:55:37;21.70;95.40
15564;DHT22;7883;52.554;13.364;2023-04-22T14:58:05;21.70;95.70
15564;DHT22;7883;52.554;13.364;2023-04-22T15:00:32;21.60;95.90
15564;DHT22;7883;52.554;13.364;2023-04-22T15:02:59;21.60;95.50
15564;DHT22;7883;52.554;13.364;2023-04-22T15:05:26;21.70;96.10
15564;DHT22;7883;52.554;13.364;2023-04-22T15:07:53;21.70;95.90
15564;DHT22;7883;52.554;13.364;2023-04-22T15:10:20;21.70;95.70
15564;DHT22;7883;52.554;13.364;2023-04-22T15:12:47;21.70;96.00
15564;DHT22;7883;52.554;13.364;2023-04-22T15:15:15;21.70;96.10
15564;DHT22;7883;52.554;13.364;2023-04-22T15:17:43;21.70;96.10
15564;DHT22;7883;52.554;13.364;2023-04-22T15:20:11;21.60;95.90
15564;DHT22;7883;52.554;13.364;2023-04-22T15:22:38;21.60;95.80
15564;DHT22;7883;52.554;13.364;2023-04-22T15:25:07;21.50;96.20
15564;DHT22;7883;52.554;13.364;2023-04-22T15:27:34;21.40;96.30
15564;DHT22;7883;52.554;13.364;2023-04-22T15:30:02;21.40;96.20
15564;DHT22;7883;52.554;13.364;2023-04-22T15:32:30;21.40;96.00
15564;DHT22;7883;52.554;13.364;2023-04-22T15:34:57;21.50;95.80
15564;DHT22;7883;52.554;13.364;2023-04-22T15:37:24;21.40;95.70